Time;durP1;ratioP1;P1;durP2;ratioP2;P2;SDS_P1;SDS_P2;PMS_P1;PMS_P2;Temp;Humidity;BMP_temperature;BMP_pressure;BME280_temperature;BME280_humidity;BME280_pressure;Samples;Min_cycle;Max_cycle;Signal;HPM_P1;HPM_P2
2022/09/01 00:00:40;;;;;;;0.03;0.03;;;17.40;99.90;;;;;;5004631;28;20110;-71
2022/09/01 00:03:08;;;;;;;0.00;0.00;;;17.40;99.90;;;;;;4997550;28;20116;-71
2022/09/01 00:05:35;;;;;;;0.00;0.00;;;17.40;99.90;;;;;;5001653;28;20041;-72
2022/09/01 00:08:00;;;;;;;1.30;0.90;;;17.40;99.90;;;;;;4995998;28;20109;-71
2022/09/01 00:10:26;;;;;;;0.10;0.10;;;17.40;99.90;;;;;;5007233;28;20128;-72
2022/09/01 00:12:52;;;;;;;0.00;0.00;;;17.40;99.90;;;;;;4993868;28;20516;-72
2022/09/01 00:15:17;;;;;;;0.00;0.00;;;17.50;99.90;;;;;;5007113;28;20053;-71
2022/09/01 00:17:43;;;;;;;0.00;0.00;;;17.40;99.90;;;;;;5010063;28;20058;-71
2022/09/01 00:20:09;;;;;;;0.00;0.00;;;17.40;99.90;;;;;;5007108;28;20053;-72
2022/09/01 00:22:35;;;;;;;0.00;0.00;;;17.40;99.90;;;;;;5010577;28;20057;-71
2022/09/01 00:25:01;;;;;;;0.00;0.00;;;17.30;99.90;;;;;;5009097;28;20168;-71
2022/09/01 00:27:26;;;;;;;0.35;0.35;;;17.30;99.90;;;;;;5005621;28;20107;-70
2022/09/01 00:29:52;;;;;;;0.00;0.00;;;17.30;99.90;;;;;;4995447;28;20421;-71
2022/09/01 00:32:18;;;;;;;0.25;0.25;;;17.20;99.90;;;;;;5008909;28;20050;-72
2022/09/01 00:34:44;;;;;;;0.00;0.00;;;17.20;99.90;;;;;;5008004;28;20049;-72
2022/09/01 00:37:09;;;;;;;0.10;0.10;;;17.20;99.90;;;;;;4999814;28;20159;-72
2022/09/01 00:39:35;;;;;;;0.00;0.00;;;17.20;99.90;;;;;;5009658;28;20038;-72
2022/09/01 00:42:01;;;;;;;0.08;0.08;;;17.10;99.90;;;;;;5002762;28;20432;-72
2022/09/01 00:44:27;;;;;;;0.00;0.00;;;17.10;99.90;;;;;;5002989;28;20053;-72
2022/09/01 00:46:55;;;;;;;0.00;0.00;;;17.10;99.90;;;;;;5010520;28;20045;-71
2022/09/01 00:49:29;;;;;;;0.85;0.08;;;17.10;99.90;;;;;;5010913;28;20049;-72
2022/09/01 00:52:01;;;;;;;0.00;0.00;;;17.10;99.90;;;;;;5000709;28;20918;-71
2022/09/01 00:54:34;;;;;;;0.17;0.17;;;17.10;99.90;;;;;;5000381;28;20038;-71
2022/09/01 00:57:02;;;;;;;0.00;0.00;;;17.00;99.90;;;;;;5001271;28;20049;-72
2022/09/01 00:59:28;;;;;;;0.10;0.10;;;17.00;99.90;;;;;;4995165;28;20129;-71
2022/09/01 01:01:55;;;;;;;0.00;0.00;;;17.00;99.90;;;;;;5006014;28;20038;-72
2022/09/01 01:04:21;;;;;;;0.00;0.00;;;17.00;99.90;;;;;;5000633;28;20046;-72
2022/09/01 01:06:57;;;;;;;0.00;0.00;;;17.00;99.90;;;;;;5000653;28;20046;-72
2022/09/01 01:09:25;;;;;;;0.00;0.00;;;17.00;99.90;;;;;;5009072;28;21830;-72
2022/09/01 01:11:52;;;;;;;0.00;0.00;;;17.00;99.90;;;;;;5004352;28;20497;-73
2022/09/01 01:14:18;;;;;;;0.00;0.00;;;17.00;99.90;;;;;;5003000;28;20057;-73
2022/09/01 01:16:46;;;;;;;0.00;0.00;;;17.00;99.90;;;;;;5002999;28;20056;-74
2022/09/01 01:25:02;;;;;;;;;;;16.80;99.90;;;;;;5002872;28;20085;-73
2022/09/01 01:27:35;;;;;;;0.30;0.30;;;16.80;99.90;;;;;;5005708;28;19921;-73
2022/09/01 01:30:06;;;;;;;;;;;16.80;99.90;;;;;;4998391;28;20791;-74
2022/09/01 01:32:32;;;;;;;0.00;0.00;;;16.80;99.90;;;;;;5004925;28;19929;-74
2022/09/01 01:35:02;;;;;;;0.45;0.45;;;16.80;99.90;;;;;;5007270;28;20100;-74
2022/09/01 01:37:28;;;;;;;0.00;0.00;;;16.70;99.90;;;;;;4995895;28;20069;-74
2022/09/01 01:39:53;;;;;;;0.10;0.10;;;16.80;99.90;;;;;;5000635;28;20049;-74
2022/09/01 01:42:19;;;;;;;1.25;0.98;;;16.70;99.90;;;;;;5007179;28;20133;-73
2022/09/01 01:44:47;;;;;;;0.00;0.00;;;16.70;99.90;;;;;;5005832;28;20046;-73
2022/09/01 01:47:15;;;;;;;0.10;0.10;;;16.80;99.90;;;;;;4995706;28;20041;-73
2022/09/01 01:49:43;;;;;;;0.22;0.22;;;16.70;99.90;;;;;;5002599;28;20490;-74
2022/09/01 01:52:13;;;;;;;0.10;0.10;;;16.70;99.90;;;;;;5007951;28;20046;-74
2022/09/01 01:54:40;;;;;;;0.00;0.00;;;16.70;99.90;;;;;;5006412;28;20096;-74
2022/09/01 01:57:06;;;;;;;0.10;0.10;;;16.70;99.90;;;;;;4990440;28;20061;-74
2022/09/01 01:59:33;;;;;;;0.00;0.00;;;16.60;99.90;;;;;;5002990;28;20061;-73
2022/09/01 02:02:08;;;;;;;0.00;0.00;;;16.60;99.90;;;;;;4999278;28;20050;-73
2022/09/01 02:04:34;;;;;;;0.10;0.10;;;16.60;99.90;;;;;;4989030;28;20047;-72
2022/09/01 02:07:00;;;;;;;0.00;0.00;;;16.50;99.90;;;;;;4987228;28;20042;-72
2022/09/01 02:09:25;;;;;;;0.10;0.10;;;16.50;99.90;;;;;;4984803;28;20148;-72
2022/09/01 02:11:57;;;;;;;0.00;0.00;;;16.50;99.90;;;;;;4993860;28;20438;-72
2022/09/01 02:14:22;;;;;;;0.00;0.00;;;16.50;99.90;;;;;;4985355;28;20560;-72
2022/09/01 02:16:48;;;;;;;0.00;0.00;;;16.50;99.90;;;;;;4996345;28;20050;-72
2022/09/01 02:19:19;;;;;;;0.00;0.00;;;16.40;99.90;;;;;;4999707;28;20092;-72
2022/09/01 02:21:53;;;;;;;0.00;0.00;;;16.40;99.90;;;;;;5002170;28;20133;-74
2022/09/01 02:24:19;;;;;;;0.22;0.22;;;16.40;99.90;;;;;;4990811;28;20058;-73
2022/09/01 02:26:46;;;;;;;0.00;0.00;;;16.40;99.90;;;;;;5003655;28;20038;-72
2022/09/01 02:29:19;;;;;;;0.10;0.10;;;16.40;99.90;;;;;;4999703;28;20046;-72
2022/09/01 02:31:51;;;;;;;0.47;0.22;;;16.40;99.90;;;;;;5002379;28;20057;-72
2022/09/01 02:34:17;;;;;;;0.10;0.10;;;16.30;99.90;;;;;;5002142;28;20045;-71
2022/09/01 02:36:49;;;;;;;0.85;0.43;;;16.40;99.90;;;;;;5009836;28;20081;-72
2022/09/01 02:39:16;;;;;;;0.10;0.10;;;16.30;99.90;;;;;;4995196;28;20050;-72
2022/09/01 02:41:42;;;;;;;0.15;0.15;;;16.30;99.90;;;;;;4990381;28;20055;-72
2022/09/01 02:44:10;;;;;;;0.20;0.20;;;16.40;99.90;;;;;;4998240;28;20064;-72
2022/09/01 02:46:41;;;;;;;0.13;0.13;;;16.40;99.90;;;;;;4999725;28;20054;-72
2022/09/01 02:49:18;;;;;;;0.00;0.00;;;16.40;99.90;;;;;;5001567;28;20038;-72
2022/09/01 02:51:47;;;;;;;0.00;0.00;;;16.30;99.90;;;;;;5009225;28;20046;-72
2022/09/01 02:54:16;;;;;;;0.00;0.00;;;16.30;99.90;;;;;;5003395;28;20436;-72
2022/09/01 02:56:46;;;;;;;0.10;0.10;;;16.30;99.90;;;;;;4990089;28;20046;-72
2022/09/01 02:59:17;;;;;;;0.10;0.10;;;16.30;99.90;;;;;;5007092;28;20080;-72
2022/09/01 03:01:46;;;;;;;0.00;0.00;;;16.30;99.90;;;;;;5006599;28;20060;-72
2022/09/01 03:04:12;;;;;;;0.00;0.00;;;16.30;99.90;;;;;;4995836;28;20441;-72
2022/09/01 03:06:39;;;;;;;0.22;0.22;;;16.10;99.90;;;;;;4996421;28;20128;-72
2022/09/01 03:09:08;;;;;;;0.00;0.00;;;16.20;99.90;;;;;;4996764;28;20038;-72
2022/09/01 03:11:37;;;;;;;0.10;0.10;;;16.10;99.90;;;;;;5005959;28;20582;-72
2022/09/01 03:14:04;;;;;;;0.35;0.35;;;16.10;99.90;;;;;;4993227;28;20078;-72
2022/09/01 03:16:29;;;;;;;0.00;0.00;;;16.20;99.90;;;;;;4996368;28;20044;-72
2022/09/01 03:18:56;;;;;;;0.10;0.10;;;16.10;99.90;;;;;;5011202;28;20037;-73
2022/09/01 03:21:22;;;;;;;0.00;0.00;;;16.10;99.90;;;;;;4993849;28;20046;-73
2022/09/01 03:23:49;;;;;;;0.00;0.00;;;16.10;99.90;;;;;;5000650;28;20042;-72
2022/09/01 03:26:18;;;;;;;0.15;0.15;;;16.10;99.90;;;;;;5010877;28;20050;-73
2022/09/01 03:28:44;;;;;;;0.10;0.10;;;16.10;99.90;;;;;;5000842;28;20518;-73
2022/09/01 03:31:11;;;;;;;0.20;0.20;;;16.10;99.90;;;;;;5007613;28;20046;-73
2022/09/01 03:33:36;;;;;;;0.40;0.40;;;16.10;99.90;;;;;;5008617;28;20057;-73
2022/09/01 03:36:03;;;;;;;0.00;0.00;;;16.00;99.90;;;;;;5010800;28;20050;-73
2022/09/01 03:38:31;;;;;;;3.40;0.70;;;16.00;99.90;;;;;;5011738;28;20500;-73
2022/09/01 03:41:03;;;;;;;0.00;0.00;;;16.00;99.90;;;;;;4996664;28;20516;-73
2022/09/01 03:43:30;;;;;;;0.03;0.03;;;16.00;99.90;;;;;;5001279;28;20041;-73
2022/09/01 03:46:00;;;;;;;0.00;0.00;;;15.90;99.90;;;;;;5010692;28;20053;-73
2022/09/01 03:48:28;;;;;;;0.00;0.00;;;15.90;99.90;;;;;;5009005;28;20041;-73
2022/09/01 03:50:56;;;;;;;0.00;0.00;;;16.00;99.90;;;;;;5007901;28;20046;-73
2022/09/01 03:53:26;;;;;;;0.20;0.20;;;15.90;99.90;;;;;;4992736;28;20042;-73
2022/09/01 03:55:53;;;;;;;0.13;0.13;;;15.90;99.90;;;;;;5010539;28;20054;-73
2022/09/01 03:58:19;;;;;;;0.20;0.20;;;15.80;99.90;;;;;;4994485;28;20045;-72
2022/09/01 04:00:54;;;;;;;0.00;0.00;;;15.80;99.90;;;;;;4994380;28;20125;-73
2022/09/01 04:03:21;;;;;;;0.10;0.10;;;15.80;99.90;;;;;;4999975;28;20115;-73
2022/09/01 04:05:49;;;;;;;0.00;0.00;;;15.90;99.90;;;;;;5011749;28;20046;-73
2022/09/01 04:08:17;;;;;;;0.10;0.10;;;15.80;99.90;;;;;;4992862;28;20054;-73
2022/09/01 04:10:52;;;;;;;0.10;0.10;;;15.80;99.90;;;;;;5010730;28;20513;-73
2022/09/01 04:13:23;;;;;;;0.00;0.00;;;15.80;99.90;;;;;;5010520;28;20054;-73
2022/09/01 04:15:49;;;;;;;0.05;0.05;;;15.80;99.90;;;;;;5009249;28;20045;-71
2022/09/01 04:18:22;;;;;;;0.10;0.10;;;15.80;99.90;;;;;;5007232;28;20506;-70
2022/09/01 04:20:58;;;;;;;0.00;0.00;;;15.80;99.90;;;;;;5002567;28;20061;-71
2022/09/01 04:23:32;;;;;;;0.00;0.00;;;15.80;99.90;;;;;;5003217;28;20065;-70
2022/09/01 04:26:13;;;;;;;0.08;0.08;;;15.80;99.90;;;;;;4999783;28;20513;-72
2022/09/01 04:28:44;;;;;;;0.08;0.08;;;15.80;99.90;;;;;;4994958;28;20109;-72
2022/09/01 04:31:16;;;;;;;0.00;0.00;;;15.70;99.90;;;;;;5004987;28;20042;-72
2022/09/01 04:33:45;;;;;;;0.00;0.00;;;15.70;99.90;;;;;;4993395;28;20109;-72
2022/09/01 04:36:18;;;;;;;0.00;0.00;;;15.70;99.90;;;;;;5009827;28;20050;-72
2022/09/01 04:38:45;;;;;;;0.08;0.08;;;15.70;99.90;;;;;;5008223;28;20092;-72
2022/09/01 04:41:16;;;;;;;0.00;0.00;;;15.70;99.90;;;;;;5000375;28;20050;-72
2022/09/01 04:43:47;;;;;;;0.00;0.00;;;15.60;99.90;;;;;;5001997;28;20107;-72
2022/09/01 04:46:14;;;;;;;0.00;0.00;;;15.70;99.90;;;;;;5004853;28;20092;-72
2022/09/01 04:48:42;;;;;;;0.10;0.10;;;15.70;99.90;;;;;;5005542;28;20045;-72
2022/09/01 04:51:09;;;;;;;0.10;0.10;;;15.70;99.90;;;;;;5009188;28;20042;-72
2022/09/01 04:53:35;;;;;;;0.10;0.10;;;15.60;99.90;;;;;;4995600;28;20034;-72
2022/09/01 04:56:06;;;;;;;0.00;0.00;;;15.60;99.90;;;;;;4995331;28;20109;-72
2022/09/01 04:58:32;;;;;;;0.00;0.00;;;15.70;99.90;;;;;;5003308;28;20569;-72
2022/09/01 05:00:59;;;;;;;0.00;0.00;;;15.60;99.90;;;;;;5005456;28;20061;-72
2022/09/01 05:03:25;;;;;;;0.00;0.00;;;15.50;99.90;;;;;;4999751;28;20093;-72
2022/09/01 05:05:52;;;;;;;0.10;0.10;;;15.50;99.90;;;;;;5008763;28;20054;-72
2022/09/01 05:08:22;;;;;;;0.20;0.20;;;15.50;99.90;;;;;;5001096;28;20560;-72
2022/09/01 05:10:51;;;;;;;0.10;0.10;;;15.60;99.90;;;;;;4997360;28;20045;-72
2022/09/01 05:13:18;;;;;;;0.00;0.00;;;15.60;99.90;;;;;;5007574;28;20038;-72
2022/09/01 05:15:46;;;;;;;0.00;0.00;;;15.60;99.90;;;;;;4992093;28;20061;-72
2022/09/01 05:18:22;;;;;;;0.00;0.00;;;15.60;99.90;;;;;;5000407;28;20069;-72
2022/09/01 05:20:49;;;;;;;0.00;0.00;;;15.60;99.90;;;;;;5008673;28;20809;-72
2022/09/01 05:23:18;;;;;;;0.00;0.00;;;15.60;99.90;;;;;;4993584;28;20422;-72
2022/09/01 05:25:45;;;;;;;0.10;0.10;;;15.70;99.90;;;;;;4990146;28;20498;-72
2022/09/01 05:28:11;;;;;;;0.00;0.00;;;15.60;99.90;;;;;;5006913;28;20057;-72
2022/09/01 05:30:39;;;;;;;0.10;0.10;;;15.50;99.90;;;;;;4992258;28;20103;-72
2022/09/01 05:33:10;;;;;;;0.10;0.10;;;15.70;99.90;;;;;;5000410;28;20498;-72
2022/09/01 05:35:42;;;;;;;0.08;0.08;;;15.60;99.90;;;;;;4998449;28;20041;-72
2022/09/01 05:38:11;;;;;;;0.10;0.10;;;15.60;99.90;;;;;;4991174;28;20462;-72
2022/09/01 05:40:39;;;;;;;0.10;0.10;;;15.70;99.90;;;;;;5003599;28;20050;-72
2022/09/01 05:43:09;;;;;;;0.00;0.00;;;15.70;99.90;;;;;;5009411;28;20486;-72
2022/09/01 05:45:36;;;;;;;0.52;0.47;;;15.70;99.90;;;;;;4990437;28;20050;-72
2022/09/01 05:48:02;;;;;;;0.80;0.50;;;15.70;99.90;;;;;;4999816;28;20049;-72
2022/09/01 05:50:28;;;;;;;0.00;0.00;;;15.70;99.90;;;;;;5013525;28;20046;-72
2022/09/01 05:52:53;;;;;;;0.10;0.10;;;15.80;99.90;;;;;;5010338;28;20049;-72
2022/09/01 05:55:19;;;;;;;0.10;0.10;;;15.80;99.90;;;;;;5009502;28;20046;-72
2022/09/01 05:57:46;;;;;;;0.00;0.00;;;15.90;99.90;;;;;;5005418;28;20119;-72
2022/09/01 06:00:13;;;;;;;0.10;0.10;;;15.90;99.90;;;;;;5009684;28;20190;-72
2022/09/01 06:02:42;;;;;;;0.05;0.05;;;15.90;99.90;;;;;;5004651;28;20054;-72
2022/09/01 06:05:09;;;;;;;0.10;0.10;;;15.90;99.90;;;;;;5009072;28;20512;-73
2022/09/01 06:07:39;;;;;;;0.10;0.10;;;15.90;99.90;;;;;;5010069;28;20049;-72
2022/09/01 06:10:06;;;;;;;0.00;0.00;;;15.90;99.90;;;;;;5009740;28;20413;-72
2022/09/01 06:12:33;;;;;;;0.55;0.25;;;15.90;99.90;;;;;;4991621;28;20042;-72
2022/09/01 06:14:59;;;;;;;0.88;0.52;;;16.00;99.90;;;;;;4999264;28;20516;-72
2022/09/01 06:17:26;;;;;;;0.08;0.08;;;16.10;99.90;;;;;;5004164;28;20042;-72
2022/09/01 06:19:57;;;;;;;0.05;0.05;;;16.10;99.90;;;;;;4998104;28;20129;-72
2022/09/01 06:22:25;;;;;;;0.00;0.00;;;16.10;99.90;;;;;;5008409;28;20405;-72
2022/09/01 06:24:53;;;;;;;0.00;0.00;;;16.10;99.90;;;;;;5009396;28;20056;-72
2022/09/01 06:27:19;;;;;;;0.10;0.10;;;16.10;99.90;;;;;;5010121;28;20049;-72
2022/09/01 06:29:46;;;;;;;0.00;0.00;;;16.20;99.90;;;;;;4993263;28;20125;-72
2022/09/01 06:32:12;;;;;;;0.30;0.30;;;16.20;99.90;;;;;;4988838;28;20054;-72
2022/09/01 06:34:41;;;;;;;0.00;0.00;;;16.30;99.90;;;;;;4996984;28;20041;-72
2022/09/01 06:37:06;;;;;;;0.10;0.10;;;16.30;99.90;;;;;;4990181;28;20050;-72
2022/09/01 06:39:33;;;;;;;0.00;0.00;;;16.30;99.90;;;;;;4993455;28;20131;-73
2022/09/01 06:42:01;;;;;;;0.00;0.00;;;16.40;99.90;;;;;;4995207;28;20445;-73
2022/09/01 06:44:26;;;;;;;0.00;0.00;;;16.40;99.90;;;;;;4988478;28;20418;-73
2022/09/01 06:46:52;;;;;;;0.00;0.00;;;16.40;99.90;;;;;;5001739;28;20033;-72
2022/09/01 06:49:20;;;;;;;0.00;0.00;;;16.50;99.90;;;;;;5003128;28;20046;-72
2022/09/01 06:51:50;;;;;;;0.00;0.00;;;16.50;99.90;;;;;;5011810;28;20050;-71
2022/09/01 06:54:18;;;;;;;0.10;0.10;;;16.60;99.90;;;;;;5011101;28;20073;-72
2022/09/01 06:56:44;;;;;;;0.10;0.10;;;16.70;99.90;;;;;;5011434;28;20505;-72
2022/09/01 06:59:11;;;;;;;0.17;0.17;;;16.70;99.90;;;;;;5011272;28;20053;-72
2022/09/01 07:01:38;;;;;;;0.15;0.15;;;16.80;99.90;;;;;;5012280;28;20046;-72
2022/09/01 07:04:03;;;;;;;0.10;0.10;;;16.90;99.90;;;;;;4996069;28;20054;-72
2022/09/01 07:06:30;;;;;;;0.00;0.00;;;16.90;99.90;;;;;;4993761;28;20057;-72
2022/09/01 07:08:57;;;;;;;0.75;0.75;;;17.00;99.90;;;;;;4991551;28;20057;-72
2022/09/01 07:11:26;;;;;;;0.03;0.03;;;17.00;99.90;;;;;;4993801;28;20047;-72
2022/09/01 07:13:55;;;;;;;0.10;0.10;;;17.10;99.90;;;;;;4994072;28;20255;-72
2022/09/01 07:16:22;;;;;;;0.10;0.10;;;17.20;99.90;;;;;;4992679;28;20404;-72
2022/09/01 07:18:49;;;;;;;0.10;0.10;;;17.20;99.90;;;;;;4997183;28;20528;-72
2022/09/01 07:21:16;;;;;;;0.00;0.00;;;17.20;99.90;;;;;;5000424;28;20072;-72
2022/09/01 07:23:42;;;;;;;0.10;0.10;;;17.30;99.90;;;;;;5001072;28;20589;-72
2022/09/01 07:26:09;;;;;;;0.10;0.10;;;17.30;99.90;;;;;;4992864;28;20486;-72
2022/09/01 07:28:35;;;;;;;0.00;0.00;;;17.30;99.90;;;;;;4993076;28;20390;-72
2022/09/01 07:31:03;;;;;;;0.10;0.10;;;17.40;99.90;;;;;;5006836;28;20050;-72
2022/09/01 07:33:30;;;;;;;0.00;0.00;;;17.50;99.90;;;;;;4992547;28;20047;-73
2022/09/01 07:35:57;;;;;;;0.70;0.68;;;17.50;99.90;;;;;;4992342;28;20054;-72
2022/09/01 07:38:27;;;;;;;0.80;0.40;;;17.60;99.90;;;;;;5000977;28;20108;-72
2022/09/01 07:40:53;;;;;;;0.20;0.20;;;17.60;99.90;;;;;;4993987;28;20050;-73
2022/09/01 07:43:24;;;;;;;0.00;0.00;;;17.70;99.90;;;;;;5012356;28;20042;-74
2022/09/01 07:45:54;;;;;;;0.00;0.00;;;17.70;99.90;;;;;;4998057;28;20038;-73
2022/09/01 07:48:22;;;;;;;0.30;0.30;;;17.70;99.90;;;;;;4997585;28;20046;-73
2022/09/01 07:50:51;;;;;;;0.00;0.00;;;17.70;99.90;;;;;;5007391;28;20061;-72
2022/09/01 07:53:21;;;;;;;0.00;0.00;;;17.80;99.90;;;;;;4991922;28;20101;-73
2022/09/01 07:55:51;;;;;;;0.10;0.10;;;17.90;99.90;;;;;;4992808;28;20054;-72
2022/09/01 07:58:20;;;;;;;0.10;0.10;;;17.90;99.90;;;;;;4992642;28;20049;-72
2022/09/01 08:00:48;;;;;;;0.32;0.32;;;18.00;99.90;;;;;;4992456;28;20054;-74
2022/09/01 08:03:17;;;;;;;0.10;0.10;;;18.10;99.90;;;;;;4992946;28;20052;-72
2022/09/01 08:05:44;;;;;;;0.00;0.00;;;18.20;99.90;;;;;;5000677;28;20046;-72
2022/09/01 08:08:10;;;;;;;0.00;0.00;;;18.20;99.90;;;;;;5012289;28;20049;-72
2022/09/01 08:10:40;;;;;;;0.20;0.20;;;18.30;99.90;;;;;;5012515;28;20045;-72
2022/09/01 08:13:07;;;;;;;0.00;0.00;;;18.30;99.90;;;;;;4992320;28;20052;-72
2022/09/01 08:15:33;;;;;;;0.10;0.10;;;18.40;99.90;;;;;;4992141;28;20054;-72
2022/09/01 08:17:58;;;;;;;0.50;0.50;;;18.50;99.90;;;;;;4994351;28;20049;-72
2022/09/01 08:20:24;;;;;;;0.10;0.10;;;18.50;99.90;;;;;;5012625;28;20389;-72
2022/09/01 08:22:49;;;;;;;0.10;0.10;;;18.60;99.90;;;;;;5009869;28;20050;-72
2022/09/01 08:25:15;;;;;;;0.00;0.00;;;18.70;99.90;;;;;;5011487;28;20049;-72
2022/09/01 08:27:41;;;;;;;0.00;0.00;;;18.70;99.90;;;;;;5005099;28;20050;-72
2022/09/01 08:30:11;;;;;;;0.00;0.00;;;18.70;99.90;;;;;;4999203;28;20386;-72
2022/09/01 08:32:40;;;;;;;0.00;0.00;;;18.80;99.90;;;;;;5009057;28;20046;-72
2022/09/01 08:35:10;;;;;;;0.00;0.00;;;18.80;99.90;;;;;;5003021;28;20053;-73
2022/09/01 08:37:36;;;;;;;0.00;0.00;;;18.90;99.90;;;;;;4995509;28;20615;-72
2022/09/01 08:40:03;;;;;;;0.05;0.05;;;19.00;99.90;;;;;;5004995;28;20073;-73
2022/09/01 08:43:07;;;;;;;0.00;0.00;;;19.00;99.90;;;;;;4991034;28;20077;-73
2022/09/01 08:45:48;;;;;;;0.00;0.00;;;19.10;99.90;;;;;;4999443;28;20054;-72
2022/09/01 08:48:18;;;;;;;0.13;0.13;;;19.20;99.90;;;;;;5000463;28;20053;-73
2022/09/01 08:50:50;;;;;;;0.10;0.10;;;19.30;99.90;;;;;;5002949;28;20041;-73
2022/09/01 08:53:32;;;;;;;0.10;0.10;;;19.40;99.90;;;;;;5012176;28;20042;-73
2022/09/01 08:55:59;;;;;;;0.00;0.00;;;19.60;99.90;;;;;;5003356;28;20054;-73
2022/09/01 08:58:29;;;;;;;0.00;0.00;;;19.70;99.90;;;;;;4992444;28;20402;-72
2022/09/01 09:01:03;;;;;;;0.03;0.03;;;19.80;99.90;;;;;;5000991;28;20070;-72
2022/09/01 09:03:44;;;;;;;0.00;0.00;;;20.10;99.90;;;;;;4998932;28;20108;-73
2022/09/01 09:06:35;;;;;;;0.57;0.45;;;20.50;99.90;;;;;;4991818;28;20056;-72
2022/09/01 09:09:06;;;;;;;0.20;0.13;;;21.40;99.90;;;;;;5008206;28;20104;-72
2022/09/01 09:11:51;;;;;;;0.00;0.00;;;22.30;99.90;;;;;;4997545;28;20049;-72
2022/09/01 09:14:35;;;;;;;0.10;0.10;;;23.00;99.90;;;;;;5004221;28;20116;-72
2022/09/01 09:17:03;;;;;;;0.03;0.03;;;23.60;99.90;;;;;;5009762;28;20054;-72
2022/09/01 09:19:37;;;;;;;0.00;0.00;;;24.00;99.80;;;;;;4995943;28;20074;-71
2022/09/01 09:22:12;;;;;;;0.00;0.00;;;24.30;99.30;;;;;;5007037;28;20042;-71
2022/09/01 09:24:56;;;;;;;0.00;0.00;;;24.70;99.30;;;;;;5009599;28;20038;-71
2022/09/01 09:27:31;;;;;;;0.00;0.00;;;24.90;98.60;;;;;;5001705;28;20123;-72
2022/09/01 09:30:03;;;;;;;0.00;0.00;;;25.20;98.60;;;;;;4996174;28;20502;-71
2022/09/01 09:32:50;;;;;;;0.20;0.20;;;25.60;96.60;;;;;;5010308;28;20053;-72
2022/09/01 09:35:23;;;;;;;0.10;0.10;;;25.50;96.10;;;;;;4993174;28;20427;-72
2022/09/01 09:37:48;;;;;;;0.20;0.20;;;25.90;96.30;;;;;;5011575;28;20128;-72
2022/09/01 09:40:19;;;;;;;0.00;0.00;;;25.80;95.70;;;;;;4996274;28;20046;-72
2022/09/01 09:42:53;;;;;;;0.17;0.17;;;25.90;96.00;;;;;;5000552;28;20081;-72
2022/09/01 09:45:26;;;;;;;0.25;0.25;;;25.90;94.70;;;;;;4999856;28;20130;-72
2022/09/01 09:47:54;;;;;;;0.00;0.00;;;26.10;95.60;;;;;;4988842;28;20443;-72
2022/09/01 09:50:30;;;;;;;0.10;0.10;;;26.20;95.30;;;;;;4990758;28;20467;-72
2022/09/01 09:53:15;;;;;;;0.00;0.00;;;26.10;95.10;;;;;;4999468;28;20092;-72
2022/09/01 09:56:21;;;;;;;0.65;0.55;;;26.10;95.40;;;;;;5007322;28;20046;-72
2022/09/01 09:58:49;;;;;;;0.00;0.00;;;26.00;94.70;;;;;;4968063;28;20061;-72
2022/09/01 10:01:24;;;;;;;0.38;0.15;;;26.20;94.60;;;;;;4992068;28;20132;-72
2022/09/01 10:03:52;;;;;;;0.00;0.00;;;26.40;94.90;;;;;;4989888;28;20053;-72
2022/09/01 10:06:40;;;;;;;0.00;0.00;;;26.30;93.90;;;;;;4990113;28;20042;-72
2022/09/01 10:09:29;;;;;;;0.52;0.40;;;26.30;94.20;;;;;;4996818;28;20386;-72
2022/09/01 10:11:57;;;;;;;0.00;0.00;;;26.40;93.80;;;;;;5004983;28;20053;-72
2022/09/01 10:14:28;;;;;;;0.22;0.22;;;26.50;94.20;;;;;;5009247;28;20041;-72
2022/09/01 10:17:01;;;;;;;0.00;0.00;;;26.60;93.70;;;;;;5000694;28;20050;-71
2022/09/01 10:19:28;;;;;;;0.00;0.00;;;26.40;94.40;;;;;;4996612;28;20053;-71
2022/09/01 10:21:54;;;;;;;0.10;0.10;;;26.30;94.00;;;;;;5008720;28;20067;-72
2022/09/01 10:24:32;;;;;;;0.00;0.00;;;26.10;93.40;;;;;;5010036;28;20489;-72
2022/09/01 10:27:00;;;;;;;0.00;0.00;;;26.00;94.10;;;;;;5005395;28;20122;-72
2022/09/01 10:29:28;;;;;;;0.00;0.00;;;26.10;93.50;;;;;;4990446;28;20438;-72
2022/09/01 10:31:55;;;;;;;0.00;0.00;;;26.00;93.90;;;;;;5010119;28;20109;-72
2022/09/01 10:34:22;;;;;;;1.25;0.38;;;25.70;94.50;;;;;;5004661;28;20048;-72
2022/09/01 10:36:49;;;;;;;0.00;0.00;;;25.70;94.70;;;;;;4995179;28;20074;-72
2022/09/01 10:39:17;;;;;;;0.00;0.00;;;25.70;94.80;;;;;;4991296;28;20057;-72
2022/09/01 10:41:47;;;;;;;0.00;0.00;;;25.90;94.00;;;;;;4990498;28;20132;-72
2022/09/01 10:44:29;;;;;;;0.00;0.00;;;26.00;94.20;;;;;;5005591;28;20046;-72
2022/09/01 10:46:56;;;;;;;0.10;0.10;;;25.70;94.20;;;;;;4990386;28;20038;-73
2022/09/01 10:49:27;;;;;;;0.00;0.00;;;25.60;93.90;;;;;;5009692;28;20077;-73
2022/09/01 10:51:54;;;;;;;0.00;0.00;;;25.50;94.20;;;;;;5009953;28;20049;-72
2022/09/01 10:54:38;;;;;;;0.00;0.00;;;25.70;94.30;;;;;;5006184;28;20049;-73
2022/09/01 10:57:38;;;;;;;0.10;0.10;;;25.90;93.30;;;;;;4993632;28;20081;-73
2022/09/01 11:00:19;;;;;;;0.00;0.00;;;26.00;93.70;;;;;;4990100;28;20097;-73
2022/09/01 11:03:12;;;;;;;0.00;0.00;;;26.30;94.00;;;;;;4988700;28;20046;-72
2022/09/01 11:05:53;;;;;;;0.00;0.00;;;25.60;92.70;;;;;;4990771;28;20112;-73
2022/09/01 11:08:28;;;;;;;0.00;0.00;;;25.10;92.80;;;;;;5007151;28;20153;-73
2022/09/01 11:11:23;;;;;;;0.00;0.00;;;24.70;92.10;;;;;;5004372;28;20471;-72
2022/09/01 11:13:52;;;;;;;0.00;0.00;;;24.50;93.30;;;;;;4990160;28;20116;-73
2022/09/01 11:16:25;;;;;;;0.00;0.00;;;25.10;93.40;;;;;;4989652;28;20101;-73
2022/09/01 11:18:51;;;;;;;0.00;0.00;;;25.10;92.20;;;;;;4987203;28;20039;-73
2022/09/01 11:21:32;;;;;;;0.20;0.10;;;25.20;92.10;;;;;;5008977;28;20129;-73
2022/09/01 11:24:35;;;;;;;0.00;0.00;;;25.70;91.10;;;;;;5007431;28;20125;-73
2022/09/01 11:27:01;;;;;;;0.00;0.00;;;25.30;90.80;;;;;;5007249;28;20042;-73
2022/09/01 11:29:50;;;;;;;0.00;0.00;;;25.70;91.80;;;;;;5002376;28;20054;-73
2022/09/01 11:32:15;;;;;;;0.03;0.03;;;25.50;90.60;;;;;;4989291;28;20054;-72
2022/09/01 11:34:44;;;;;;;0.00;0.00;;;25.90;91.70;;;;;;4992704;28;20060;-72
2022/09/01 11:37:20;;;;;;;0.20;0.20;;;26.30;91.20;;;;;;5004338;28;20088;-73
2022/09/01 11:39:49;;;;;;;0.10;0.10;;;26.30;91.10;;;;;;5001025;28;20048;-72
2022/09/01 11:42:39;;;;;;;0.00;0.00;;;26.60;90.90;;;;;;5012288;28;20038;-75
2022/09/01 11:45:21;;;;;;;0.00;0.00;;;26.80;91.00;;;;;;5004280;28;20133;-74
2022/09/01 11:48:08;;;;;;;0.08;0.08;;;27.30;91.00;;;;;;5003561;28;20152;-74
2022/09/01 11:50:39;;;;;;;0.00;0.00;;;27.60;90.80;;;;;;5006395;28;20060;-73
2022/09/01 11:53:18;;;;;;;0.00;0.00;;;27.60;89.00;;;;;;5002003;28;20050;-72
2022/09/01 11:55:49;;;;;;;0.00;0.00;;;27.70;90.50;;;;;;5003889;28;20035;-72
2022/09/01 11:58:31;;;;;;;0.00;0.00;;;28.00;87.70;;;;;;5003764;28;20100;-73
2022/09/01 12:01:13;;;;;;;0.00;0.00;;;28.10;89.70;;;;;;5009518;28;20108;-74
2022/09/01 12:03:39;;;;;;;0.00;0.00;;;28.10;90.00;;;;;;5005510;28;20038;-73
2022/09/01 12:06:08;;;;;;;0.00;0.00;;;28.30;89.50;;;;;;5005634;28;20044;-73
2022/09/01 12:08:39;;;;;;;0.00;0.00;;;27.80;88.20;;;;;;5009684;28;20045;-73
2022/09/01 12:11:07;;;;;;;0.00;0.00;;;27.70;87.90;;;;;;5010689;28;20049;-73
2022/09/01 12:13:33;;;;;;;0.00;0.00;;;27.90;86.60;;;;;;5002126;28;20069;-74
2022/09/01 12:16:06;;;;;;;0.00;0.00;;;28.10;89.00;;;;;;4990164;28;20046;-74
2022/09/01 12:18:43;;;;;;;0.00;0.00;;;28.00;85.70;;;;;;4993040;28;20073;-74
2022/09/01 12:21:21;;;;;;;0.00;0.00;;;28.10;86.40;;;;;;5005024;28;20050;-74
2022/09/01 12:23:47;;;;;;;0.00;0.00;;;27.30;86.90;;;;;;5004222;28;20101;-73
2022/09/01 12:26:28;;;;;;;0.00;0.00;;;26.60;88.10;;;;;;4992102;28;20046;-73
2022/09/01 12:28:55;;;;;;;0.10;0.00;;;26.10;90.10;;;;;;4995011;28;20054;-74
2022/09/01 12:31:24;;;;;;;0.00;0.00;;;26.80;88.70;;;;;;5004086;28;20066;-74
2022/09/01 12:33:51;;;;;;;0.00;0.00;;;26.60;87.60;;;;;;4994802;28;20093;-74
2022/09/01 12:36:29;;;;;;;0.00;0.00;;;27.30;89.90;;;;;;5001302;28;20033;-74
2022/09/01 12:38:57;;;;;;;0.00;0.00;;;27.90;88.40;;;;;;5009084;28;20386;-74
2022/09/01 12:41:37;;;;;;;1.00;0.50;;;28.10;87.90;;;;;;4994115;28;20101;-74
2022/09/01 12:44:26;;;;;;;0.00;0.00;;;27.80;87.70;;;;;;5009214;28;20056;-74
2022/09/01 12:46:52;;;;;;;0.68;0.52;;;27.30;87.60;;;;;;4999094;28;20065;-74
2022/09/01 12:49:23;;;;;;;0.00;0.00;;;27.60;87.60;;;;;;4990140;28;20058;-74
2022/09/01 12:52:04;;;;;;;0.00;0.00;;;26.90;87.20;;;;;;4993773;28;20046;-74
2022/09/01 12:54:29;;;;;;;0.00;0.00;;;27.10;87.60;;;;;;5010880;28;20034;-73
2022/09/01 12:56:56;;;;;;;0.03;0.00;;;26.40;85.20;;;;;;4990252;28;20105;-74
2022/09/01 12:59:25;;;;;;;0.00;0.00;;;26.00;88.70;;;;;;4991736;28;20121;-74
2022/09/01 13:01:51;;;;;;;0.00;0.00;;;27.00;89.20;;;;;;5011210;28;20128;-74
2022/09/01 13:04:20;;;;;;;0.00;0.00;;;26.60;86.30;;;;;;5007879;28;20093;-73
2022/09/01 13:06:45;;;;;;;0.00;0.00;;;26.50;87.00;;;;;;5009395;28;20064;-74
2022/09/01 13:09:11;;;;;;;0.03;0.03;;;26.90;87.90;;;;;;4999936;28;20486;-74